sensor_id;sensor_type;location;lat;lon;timestamp;P1;durP1;ratioP1;P2;durP2;ratioP2
59998;SDS011;45859;51.378;6.736;2023-09-19T00:01:39;10.00;;;2.35;;
59998;SDS011;45859;51.378;6.736;2023-09-19T00:04:06;8.73;;;2.87;;
59998;SDS011;45859;51.378;6.736;2023-09-19T00:06:38;14.23;;;3.88;;
59998;SDS011;45859;51.378;6.736;2023-09-19T00:09:04;11.73;;;2.47;;
59998;SDS011;45859;51.378;6.736;2023-09-19T00:11:30;7.90;;;2.87;;
59998;SDS011;45859;51.378;6.736;2023-09-19T00:13:56;12.27;;;3.80;;
59998;SDS011;45859;51.378;6.736;2023-09-19T00:16:24;14.17;;;3.27;;
59998;SDS011;45859;51.378;6.736;2023-09-19T00:18:50;9.03;;;3.13;;
59998;SDS011;45859;51.378;6.736;2023-09-19T00:21:17;10.13;;;3.27;;
59998;SDS011;45859;51.378;6.736;2023-09-19T00:23:44;11.93;;;3.83;;
59998;SDS011;45859;51.378;6.736;2023-09-19T00:26:10;10.13;;;3.50;;
59998;SDS011;45859;51.378;6.736;2023-09-19T00:28:37;10.03;;;3.20;;
59998;SDS011;45859;51.378;6.736;2023-09-19T00:31:04;10.90;;;3.37;;
59998;SDS011;45859;51.378;6.736;2023-09-19T00:33:30;11.50;;;3.13;;
59998;SDS011;45859;51.378;6.736;2023-09-19T00:35:56;10.77;;;3.60;;
59998;SDS011;45859;51.378;6.736;2023-09-19T00:38:22;10.80;;;3.37;;
59998;SDS011;45859;51.378;6.736;2023-09-19T00:40:52;9.33;;;3.60;;
59998;SDS011;45859;51.378;6.736;2023-09-19T00:43:19;9.97;;;3.53;;
59998;SDS011;45859;51.378;6.736;2023-09-19T00:45:46;10.23;;;3.40;;
59998;SDS011;45859;51.378;6.736;2023-09-19T00:48:15;11.98;;;3.70;;
59998;SDS011;45859;51.378;6.736;2023-09-19T00:50:42;9.83;;;3.43;;
59998;SDS011;45859;51.378;6.736;2023-09-19T00:53:09;9.37;;;3.30;;
59998;SDS011;45859;51.378;6.736;2023-09-19T00:55:35;11.83;;;3.17;;
59998;SDS011;45859;51.378;6.736;2023-09-19T00:58:07;15.50;;;3.07;;
59998;SDS011;45859;51.378;6.736;2023-09-19T01:00:35;14.67;;;3.30;;
59998;SDS011;45859;51.378;6.736;2023-09-19T01:03:01;10.10;;;3.80;;
59998;SDS011;45859;51.378;6.736;2023-09-19T01:05:27;13.87;;;4.07;;
59998;SDS011;45859;51.378;6.736;2023-09-19T01:07:54;11.53;;;3.43;;
59998;SDS011;45859;51.378;6.736;2023-09-19T01:10:20;9.73;;;3.37;;
59998;SDS011;45859;51.378;6.736;2023-09-19T01:15:20;13.97;;;3.53;;
59998;SDS011;45859;51.378;6.736;2023-09-19T01:23:01;7.53;;;2.77;;
59998;SDS011;45859;51.378;6.736;2023-09-19T01:25:51;14.80;;;4.53;;
59998;SDS011;45859;51.378;6.736;2023-09-19T01:30:57;16.67;;;5.90;;
59998;SDS011;45859;51.378;6.736;2023-09-19T01:33:25;14.93;;;4.93;;
59998;SDS011;45859;51.378;6.736;2023-09-19T01:35:51;12.73;;;4.17;;
59998;SDS011;45859;51.378;6.736;2023-09-19T01:38:18;17.23;;;3.97;;
59998;SDS011;45859;51.378;6.736;2023-09-19T01:40:47;13.07;;;4.33;;
59998;SDS011;45859;51.378;6.736;2023-09-19T01:43:24;12.60;;;4.20;;
59998;SDS011;45859;51.378;6.736;2023-09-19T01:45:59;11.07;;;3.60;;
59998;SDS011;45859;51.378;6.736;2023-09-19T01:51:06;15.90;;;3.97;;
59998;SDS011;45859;51.378;6.736;2023-09-19T01:53:41;12.37;;;4.10;;
59998;SDS011;45859;51.378;6.736;2023-09-19T01:56:08;11.73;;;3.30;;
59998;SDS011;45859;51.378;6.736;2023-09-19T01:58:39;14.27;;;4.97;;
59998;SDS011;45859;51.378;6.736;2023-09-19T02:01:11;11.93;;;4.10;;
59998;SDS011;45859;51.378;6.736;2023-09-19T02:03:39;16.53;;;7.17;;
59998;SDS011;45859;51.378;6.736;2023-09-19T02:06:13;11.93;;;3.65;;
59998;SDS011;45859;51.378;6.736;2023-09-19T02:08:40;15.17;;;5.03;;
59998;SDS011;45859;51.378;6.736;2023-09-19T02:11:13;12.63;;;3.70;;
59998;SDS011;45859;51.378;6.736;2023-09-19T02:13:39;10.93;;;2.90;;
59998;SDS011;45859;51.378;6.736;2023-09-19T02:16:06;10.93;;;2.60;;
59998;SDS011;45859;51.378;6.736;2023-09-19T02:18:34;12.80;;;3.57;;
59998;SDS011;45859;51.378;6.736;2023-09-19T02:21:01;14.27;;;3.37;;
59998;SDS011;45859;51.378;6.736;2023-09-19T02:23:27;13.00;;;3.93;;
59998;SDS011;45859;51.378;6.736;2023-09-19T02:25:55;14.47;;;5.00;;
59998;SDS011;45859;51.378;6.736;2023-09-19T02:28:31;11.30;;;4.57;;
59998;SDS011;45859;51.378;6.736;2023-09-19T02:30:58;11.77;;;3.43;;
59998;SDS011;45859;51.378;6.736;2023-09-19T02:33:24;11.87;;;3.10;;
59998;SDS011;45859;51.378;6.736;2023-09-19T02:35:54;10.60;;;2.37;;
59998;SDS011;45859;51.378;6.736;2023-09-19T02:38:22;17.23;;;4.93;;
59998;SDS011;45859;51.378;6.736;2023-09-19T02:40:51;12.50;;;3.77;;
59998;SDS011;45859;51.378;6.736;2023-09-19T02:43:17;10.57;;;3.50;;
59998;SDS011;45859;51.378;6.736;2023-09-19T02:45:45;18.60;;;4.03;;
59998;SDS011;45859;51.378;6.736;2023-09-19T02:48:29;12.50;;;3.47;;
59998;SDS011;45859;51.378;6.736;2023-09-19T02:50:57;11.37;;;2.80;;
59998;SDS011;45859;51.378;6.736;2023-09-19T02:53:23;11.07;;;2.57;;
59998;SDS011;45859;51.378;6.736;2023-09-19T02:55:49;11.47;;;3.23;;
59998;SDS011;45859;51.378;6.736;2023-09-19T02:58:21;10.17;;;2.70;;
59998;SDS011;45859;51.378;6.736;2023-09-19T03:00:50;13.03;;;4.00;;
59998;SDS011;45859;51.378;6.736;2023-09-19T03:03:16;15.10;;;4.20;;
59998;SDS011;45859;51.378;6.736;2023-09-19T03:05:42;26.33;;;12.10;;
59998;SDS011;45859;51.378;6.736;2023-09-19T03:08:12;10.50;;;2.10;;
59998;SDS011;45859;51.378;6.736;2023-09-19T03:10:42;1.45;;;0.77;;
59998;SDS011;45859;51.378;6.736;2023-09-19T03:13:08;11.40;;;3.20;;
59998;SDS011;45859;51.378;6.736;2023-09-19T03:15:35;9.77;;;3.33;;
59998;SDS011;45859;51.378;6.736;2023-09-19T03:18:04;6.43;;;2.67;;
59998;SDS011;45859;51.378;6.736;2023-09-19T03:20:31;13.23;;;3.70;;
59998;SDS011;45859;51.378;6.736;2023-09-19T03:22:57;6.70;;;2.23;;
59998;SDS011;45859;51.378;6.736;2023-09-19T03:25:23;9.40;;;3.53;;
59998;SDS011;45859;51.378;6.736;2023-09-19T03:27:50;10.97;;;2.80;;
59998;SDS011;45859;51.378;6.736;2023-09-19T03:30:16;9.03;;;2.77;;
59998;SDS011;45859;51.378;6.736;2023-09-19T03:32:46;11.43;;;2.93;;
59998;SDS011;45859;51.378;6.736;2023-09-19T03:35:15;12.00;;;3.40;;
59998;SDS011;45859;51.378;6.736;2023-09-19T03:37:42;11.87;;;2.97;;
59998;SDS011;45859;51.378;6.736;2023-09-19T03:40:09;11.43;;;3.70;;
59998;SDS011;45859;51.378;6.736;2023-09-19T03:42:38;7.87;;;2.43;;
59998;SDS011;45859;51.378;6.736;2023-09-19T03:45:05;9.07;;;2.93;;
59998;SDS011;45859;51.378;6.736;2023-09-19T03:47:31;10.70;;;2.70;;
59998;SDS011;45859;51.378;6.736;2023-09-19T03:49:58;9.40;;;2.73;;
59998;SDS011;45859;51.378;6.736;2023-09-19T03:52:24;11.03;;;3.00;;
59998;SDS011;45859;51.378;6.736;2023-09-19T03:54:51;13.73;;;3.07;;
59998;SDS011;45859;51.378;6.736;2023-09-19T03:57:17;7.90;;;2.87;;
59998;SDS011;45859;51.378;6.736;2023-09-19T03:59:46;9.87;;;3.10;;
59998;SDS011;45859;51.378;6.736;2023-09-19T04:02:18;9.97;;;3.00;;
59998;SDS011;45859;51.378;6.736;2023-09-19T04:04:47;13.73;;;4.30;;
59998;SDS011;45859;51.378;6.736;2023-09-19T04:07:13;15.60;;;4.57;;
59998;SDS011;45859;51.378;6.736;2023-09-19T04:09:40;15.13;;;4.33;;
59998;SDS011;45859;51.378;6.736;2023-09-19T04:12:07;12.50;;;3.47;;
59998;SDS011;45859;51.378;6.736;2023-09-19T04:14:36;6.13;;;1.02;;
59998;SDS011;45859;51.378;6.736;2023-09-19T04:17:03;5.30;;;1.23;;
59998;SDS011;45859;51.378;6.736;2023-09-19T04:19:30;5.63;;;2.30;;
59998;SDS011;45859;51.378;6.736;2023-09-19T04:21:57;7.73;;;2.73;;
59998;SDS011;45859;51.378;6.736;2023-09-19T04:24:23;9.40;;;2.73;;
59998;SDS011;45859;51.378;6.736;2023-09-19T04:26:49;10.87;;;2.90;;
59998;SDS011;45859;51.378;6.736;2023-09-19T04:29:15;7.93;;;2.67;;
59998;SDS011;45859;51.378;6.736;2023-09-19T04:31:44;10.20;;;3.00;;
59998;SDS011;45859;51.378;6.736;2023-09-19T04:34:11;13.03;;;3.23;;
59998;SDS011;45859;51.378;6.736;2023-09-19T04:36:41;9.00;;;1.08;;
59998;SDS011;45859;51.378;6.736;2023-09-19T04:39:08;10.53;;;3.00;;
59998;SDS011;45859;51.378;6.736;2023-09-19T04:41:36;9.77;;;3.03;;
59998;SDS011;45859;51.378;6.736;2023-09-19T04:44:04;10.70;;;2.87;;
59998;SDS011;45859;51.378;6.736;2023-09-19T04:46:34;9.90;;;0.87;;
59998;SDS011;45859;51.378;6.736;2023-09-19T04:49:00;11.97;;;3.03;;
59998;SDS011;45859;51.378;6.736;2023-09-19T04:51:29;8.23;;;2.50;;
59998;SDS011;45859;51.378;6.736;2023-09-19T04:53:59;9.32;;;2.80;;
59998;SDS011;45859;51.378;6.736;2023-09-19T04:56:26;10.63;;;2.60;;
59998;SDS011;45859;51.378;6.736;2023-09-19T04:58:53;9.40;;;2.53;;
59998;SDS011;45859;51.378;6.736;2023-09-19T05:01:22;12.80;;;3.00;;
59998;SDS011;45859;51.378;6.736;2023-09-19T05:03:49;15.10;;;2.97;;
59998;SDS011;45859;51.378;6.736;2023-09-19T05:06:21;2.45;;;0.98;;
59998;SDS011;45859;51.378;6.736;2023-09-19T05:08:51;13.53;;;3.53;;
59998;SDS011;45859;51.378;6.736;2023-09-19T05:11:21;11.13;;;3.40;;
59998;SDS011;45859;51.378;6.736;2023-09-19T05:13:48;10.20;;;1.88;;
59998;SDS011;45859;51.378;6.736;2023-09-19T05:16:18;18.65;;;4.40;;
59998;SDS011;45859;51.378;6.736;2023-09-19T05:18:44;12.00;;;3.60;;
59998;SDS011;45859;51.378;6.736;2023-09-19T05:21:10;10.77;;;3.53;;
59998;SDS011;45859;51.378;6.736;2023-09-19T05:23:37;11.73;;;3.73;;
59998;SDS011;45859;51.378;6.736;2023-09-19T05:26:05;14.53;;;3.57;;
59998;SDS011;45859;51.378;6.736;2023-09-19T05:28:32;13.07;;;3.23;;
59998;SDS011;45859;51.378;6.736;2023-09-19T05:31:00;14.10;;;3.73;;
59998;SDS011;45859;51.378;6.736;2023-09-19T05:33:27;11.73;;;2.77;;
59998;SDS011;45859;51.378;6.736;2023-09-19T05:35:54;15.00;;;3.87;;
59998;SDS011;45859;51.378;6.736;2023-09-19T05:38:23;15.30;;;4.30;;
59998;SDS011;45859;51.378;6.736;2023-09-19T05:40:51;16.57;;;3.77;;
59998;SDS011;45859;51.378;6.736;2023-09-19T05:43:17;12.20;;;3.30;;
59998;SDS011;45859;51.378;6.736;2023-09-19T05:45:44;16.67;;;3.83;;
59998;SDS011;45859;51.378;6.736;2023-09-19T05:48:14;12.03;;;3.50;;
59998;SDS011;45859;51.378;6.736;2023-09-19T05:50:40;15.50;;;4.90;;
59998;SDS011;45859;51.378;6.736;2023-09-19T05:53:07;15.87;;;3.97;;
59998;SDS011;45859;51.378;6.736;2023-09-19T05:55:35;12.93;;;3.20;;
59998;SDS011;45859;51.378;6.736;2023-09-19T05:58:01;12.30;;;3.70;;
59998;SDS011;45859;51.378;6.736;2023-09-19T06:00:28;16.30;;;3.77;;
59998;SDS011;45859;51.378;6.736;2023-09-19T06:02:55;17.10;;;4.37;;
59998;SDS011;45859;51.378;6.736;2023-09-19T06:05:22;21.13;;;5.43;;
59998;SDS011;45859;51.378;6.736;2023-09-19T06:07:51;12.35;;;3.42;;
59998;SDS011;45859;51.378;6.736;2023-09-19T06:10:18;15.97;;;3.50;;
59998;SDS011;45859;51.378;6.736;2023-09-19T06:12:46;15.47;;;7.10;;
59998;SDS011;45859;51.378;6.736;2023-09-19T06:15:13;7.87;;;2.43;;
59998;SDS011;45859;51.378;6.736;2023-09-19T06:20:14;13.40;;;3.93;;
59998;SDS011;45859;51.378;6.736;2023-09-19T06:22:41;10.33;;;3.17;;
59998;SDS011;45859;51.378;6.736;2023-09-19T06:25:08;11.00;;;3.30;;
59998;SDS011;45859;51.378;6.736;2023-09-19T06:27:40;11.87;;;3.30;;
59998;SDS011;45859;51.378;6.736;2023-09-19T06:30:10;10.70;;;3.37;;
59998;SDS011;45859;51.378;6.736;2023-09-19T06:32:37;12.30;;;3.00;;
59998;SDS011;45859;51.378;6.736;2023-09-19T06:35:04;11.83;;;3.37;;
59998;SDS011;45859;51.378;6.736;2023-09-19T06:37:33;11.43;;;3.40;;
59998;SDS011;45859;51.378;6.736;2023-09-19T06:40:04;12.18;;;3.47;;
59998;SDS011;45859;51.378;6.736;2023-09-19T06:42:31;11.43;;;4.20;;
59998;SDS011;45859;51.378;6.736;2023-09-19T06:44:57;8.50;;;3.37;;
59998;SDS011;45859;51.378;6.736;2023-09-19T06:47:24;13.47;;;4.10;;
59998;SDS011;45859;51.378;6.736;2023-09-19T06:49:51;12.10;;;3.33;;
59998;SDS011;45859;51.378;6.736;2023-09-19T06:52:19;11.40;;;3.33;;
59998;SDS011;45859;51.378;6.736;2023-09-19T06:54:46;10.97;;;3.00;;
59998;SDS011;45859;51.378;6.736;2023-09-19T06:57:15;9.23;;;2.80;;
59998;SDS011;45859;51.378;6.736;2023-09-19T06:59:41;11.20;;;3.40;;
59998;SDS011;45859;51.378;6.736;2023-09-19T07:02:10;12.00;;;3.53;;
59998;SDS011;45859;51.378;6.736;2023-09-19T07:04:36;9.03;;;2.70;;
59998;SDS011;45859;51.378;6.736;2023-09-19T07:07:02;9.73;;;3.73;;
59998;SDS011;45859;51.378;6.736;2023-09-19T07:09:28;11.57;;;3.13;;
59998;SDS011;45859;51.378;6.736;2023-09-19T07:11:57;11.82;;;2.80;;
59998;SDS011;45859;51.378;6.736;2023-09-19T07:14:23;10.02;;;3.17;;
59998;SDS011;45859;51.378;6.736;2023-09-19T07:16:49;10.83;;;3.00;;
59998;SDS011;45859;51.378;6.736;2023-09-19T07:19:17;13.27;;;3.17;;
59998;SDS011;45859;51.378;6.736;2023-09-19T07:21:43;12.90;;;3.03;;
59998;SDS011;45859;51.378;6.736;2023-09-19T07:24:12;9.02;;;3.00;;
59998;SDS011;45859;51.378;6.736;2023-09-19T07:26:41;12.90;;;3.08;;
59998;SDS011;45859;51.378;6.736;2023-09-19T07:29:07;10.20;;;3.42;;
59998;SDS011;45859;51.378;6.736;2023-09-19T07:31:35;13.23;;;3.58;;
59998;SDS011;45859;51.378;6.736;2023-09-19T07:34:01;12.15;;;3.53;;
59998;SDS011;45859;51.378;6.736;2023-09-19T07:36:29;7.75;;;2.67;;
59998;SDS011;45859;51.378;6.736;2023-09-19T07:38:55;14.30;;;3.38;;
59998;SDS011;45859;51.378;6.736;2023-09-19T07:41:23;10.07;;;2.80;;
59998;SDS011;45859;51.378;6.736;2023-09-19T07:43:50;11.15;;;2.80;;
59998;SDS011;45859;51.378;6.736;2023-09-19T07:46:34;10.18;;;2.80;;
59998;SDS011;45859;51.378;6.736;2023-09-19T07:49:03;8.45;;;2.50;;
59998;SDS011;45859;51.378;6.736;2023-09-19T07:51:30;14.75;;;3.03;;
59998;SDS011;45859;51.378;6.736;2023-09-19T07:53:58;11.13;;;3.38;;
59998;SDS011;45859;51.378;6.736;2023-09-19T07:56:24;9.52;;;2.38;;
59998;SDS011;45859;51.378;6.736;2023-09-19T07:58:51;11.18;;;3.20;;
59998;SDS011;45859;51.378;6.736;2023-09-19T08:01:17;9.23;;;2.78;;
59998;SDS011;45859;51.378;6.736;2023-09-19T08:03:43;13.90;;;2.58;;
59998;SDS011;45859;51.378;6.736;2023-09-19T08:06:10;11.05;;;2.88;;
59998;SDS011;45859;51.378;6.736;2023-09-19T08:08:36;14.07;;;2.60;;
59998;SDS011;45859;51.378;6.736;2023-09-19T08:11:04;12.13;;;2.80;;
59998;SDS011;45859;51.378;6.736;2023-09-19T08:13:41;8.55;;;2.97;;
59998;SDS011;45859;51.378;6.736;2023-09-19T08:16:13;13.23;;;2.90;;
59998;SDS011;45859;51.378;6.736;2023-09-19T08:18:47;12.30;;;2.83;;
59998;SDS011;45859;51.378;6.736;2023-09-19T08:21:13;8.60;;;2.50;;
59998;SDS011;45859;51.378;6.736;2023-09-19T08:23:40;10.80;;;2.65;;
59998;SDS011;45859;51.378;6.736;2023-09-19T08:26:07;7.78;;;2.38;;
59998;SDS011;45859;51.378;6.736;2023-09-19T08:28:36;11.05;;;2.40;;
59998;SDS011;45859;51.378;6.736;2023-09-19T08:31:05;7.95;;;2.35;;
59998;SDS011;45859;51.378;6.736;2023-09-19T08:33:32;10.27;;;2.60;;
59998;SDS011;45859;51.378;6.736;2023-09-19T08:35:59;11.50;;;3.03;;
59998;SDS011;45859;51.378;6.736;2023-09-19T08:38:25;9.70;;;2.55;;
59998;SDS011;45859;51.378;6.736;2023-09-19T08:40:57;6.18;;;2.17;;
59998;SDS011;45859;51.378;6.736;2023-09-19T08:43:24;10.27;;;3.13;;
59998;SDS011;45859;51.378;6.736;2023-09-19T08:45:51;9.82;;;2.45;;
59998;SDS011;45859;51.378;6.736;2023-09-19T08:48:23;6.50;;;2.03;;
59998;SDS011;45859;51.378;6.736;2023-09-19T08:51:03;8.45;;;2.45;;
59998;SDS011;45859;51.378;6.736;2023-09-19T08:53:31;9.10;;;2.63;;
59998;SDS011;45859;51.378;6.736;2023-09-19T08:56:00;10.35;;;2.60;;
59998;SDS011;45859;51.378;6.736;2023-09-19T08:58:27;9.23;;;2.10;;
59998;SDS011;45859;51.378;6.736;2023-09-19T09:00:58;11.20;;;2.67;;
59998;SDS011;45859;51.378;6.736;2023-09-19T09:03:26;14.35;;;2.60;;
59998;SDS011;45859;51.378;6.736;2023-09-19T09:05:52;8.73;;;2.72;;
59998;SDS011;45859;51.378;6.736;2023-09-19T09:08:19;9.25;;;2.10;;
59998;SDS011;45859;51.378;6.736;2023-09-19T09:10:46;10.77;;;2.60;;
59998;SDS011;45859;51.378;6.736;2023-09-19T09:13:13;13.77;;;2.88;;
59998;SDS011;45859;51.378;6.736;2023-09-19T09:15:40;10.82;;;2.83;;
59998;SDS011;45859;51.378;6.736;2023-09-19T09:18:06;10.98;;;2.55;;
59998;SDS011;45859;51.378;6.736;2023-09-19T09:20:32;8.13;;;2.65;;
59998;SDS011;45859;51.378;6.736;2023-09-19T09:22:58;7.07;;;2.20;;
59998;SDS011;45859;51.378;6.736;2023-09-19T09:25:47;8.00;;;2.85;;
59998;SDS011;45859;51.378;6.736;2023-09-19T09:28:25;8.07;;;2.45;;
59998;SDS011;45859;51.378;6.736;2023-09-19T09:30:52;8.50;;;2.20;;
59998;SDS011;45859;51.378;6.736;2023-09-19T09:33:18;8.95;;;2.45;;
59998;SDS011;45859;51.378;6.736;2023-09-19T09:35:51;8.60;;;2.78;;
59998;SDS011;45859;51.378;6.736;2023-09-19T09:38:18;9.27;;;2.08;;
59998;SDS011;45859;51.378;6.736;2023-09-19T09:40:46;8.18;;;2.33;;
59998;SDS011;45859;51.378;6.736;2023-09-19T09:43:27;9.50;;;2.50;;
59998;SDS011;45859;51.378;6.736;2023-09-19T09:46:06;7.80;;;2.20;;
59998;SDS011;45859;51.378;6.736;2023-09-19T09:48:58;8.23;;;2.35;;
59998;SDS011;45859;51.378;6.736;2023-09-19T09:51:44;8.63;;;2.20;;
59998;SDS011;45859;51.378;6.736;2023-09-19T09:54:22;11.63;;;2.30;;
59998;SDS011;45859;51.378;6.736;2023-09-19T09:56:52;9.70;;;2.08;;
59998;SDS011;45859;51.378;6.736;2023-09-19T09:59:49;10.68;;;2.97;;
59998;SDS011;45859;51.378;6.736;2023-09-19T10:02:19;11.57;;;2.70;;
59998;SDS011;45859;51.378;6.736;2023-09-19T10:04:54;7.07;;;2.60;;
59998;SDS011;45859;51.378;6.736;2023-09-19T10:07:31;6.70;;;2.22;;
59998;SDS011;45859;51.378;6.736;2023-09-19T10:10:06;6.80;;;2.13;;
59998;SDS011;45859;51.378;6.736;2023-09-19T10:12:42;7.60;;;2.35;;
59998;SDS011;45859;51.378;6.736;2023-09-19T10:15:10;9.75;;;2.50;;
59998;SDS011;45859;51.378;6.736;2023-09-19T10:17:36;8.10;;;2.22;;
59998;SDS011;45859;51.378;6.736;2023-09-19T10:20:03;7.60;;;2.33;;
59998;SDS011;45859;51.378;6.736;2023-09-19T10:22:43;8.75;;;2.72;;
59998;SDS011;45859;51.378;6.736;2023-09-19T10:25:23;7.50;;;2.05;;
59998;SDS011;45859;51.378;6.736;2023-09-19T10:27:56;11.73;;;2.33;;
59998;SDS011;45859;51.378;6.736;2023-09-19T10:30:28;6.82;;;2.28;;
59998;SDS011;45859;51.378;6.736;2023-09-19T10:33:02;7.75;;;2.50;;
59998;SDS011;45859;51.378;6.736;2023-09-19T10:35:28;8.07;;;1.92;;
59998;SDS011;45859;51.378;6.736;2023-09-19T10:37:59;9.40;;;1.90;;
59998;SDS011;45859;51.378;6.736;2023-09-19T10:40:29;10.10;;;2.10;;
59998;SDS011;45859;51.378;6.736;2023-09-19T10:43:02;9.45;;;2.40;;
59998;SDS011;45859;51.378;6.736;2023-09-19T10:45:30;7.72;;;2.13;;
59998;SDS011;45859;51.378;6.736;2023-09-19T10:47:57;17.42;;;3.45;;
59998;SDS011;45859;51.378;6.736;2023-09-19T10:50:23;11.00;;;2.90;;
59998;SDS011;45859;51.378;6.736;2023-09-19T10:52:50;5.82;;;2.00;;
59998;SDS011;45859;51.378;6.736;2023-09-19T10:55:23;7.10;;;2.35;;
59998;SDS011;45859;51.378;6.736;2023-09-19T10:57:50;6.03;;;1.95;;
59998;SDS011;45859;51.378;6.736;2023-09-19T11:00:16;11.68;;;2.38;;
59998;SDS011;45859;51.378;6.736;2023-09-19T11:05:36;10.77;;;2.20;;
59998;SDS011;45859;51.378;6.736;2023-09-19T11:08:06;8.40;;;2.15;;
59998;SDS011;45859;51.378;6.736;2023-09-19T11:10:45;7.03;;;2.00;;
59998;SDS011;45859;51.378;6.736;2023-09-19T11:13:23;9.40;;;2.30;;
59998;SDS011;45859;51.378;6.736;2023-09-19T11:26:47;12.27;;;2.65;;
59998;SDS011;45859;51.378;6.736;2023-09-19T11:29:29;8.60;;;2.28;;
59998;SDS011;45859;51.378;6.736;2023-09-19T11:31:56;7.07;;;2.03;;
59998;SDS011;45859;51.378;6.736;2023-09-19T11:34:37;7.85;;;2.30;;
59998;SDS011;45859;51.378;6.736;2023-09-19T11:37:03;8.05;;;2.28;;
59998;SDS011;45859;51.378;6.736;2023-09-19T11:40:07;8.02;;;1.98;;
59998;SDS011;45859;51.378;6.736;2023-09-19T11:42:43;9.13;;;2.13;;
59998;SDS011;45859;51.378;6.736;2023-09-19T11:48:05;9.70;;;2.13;;
59998;SDS011;45859;51.378;6.736;2023-09-19T11:50:31;5.43;;;2.30;;
59998;SDS011;45859;51.378;6.736;2023-09-19T11:52:59;7.15;;;1.98;;
59998;SDS011;45859;51.378;6.736;2023-09-19T11:55:28;7.53;;;1.90;;
59998;SDS011;45859;51.378;6.736;2023-09-19T11:57:57;9.90;;;2.13;;
59998;SDS011;45859;51.378;6.736;2023-09-19T12:00:24;6.75;;;1.63;;
59998;SDS011;45859;51.378;6.736;2023-09-19T12:02:52;6.25;;;1.70;;
59998;SDS011;45859;51.378;6.736;2023-09-19T12:05:29;10.38;;;2.65;;
59998;SDS011;45859;51.378;6.736;2023-09-19T12:07:56;10.27;;;2.30;;
59998;SDS011;45859;51.378;6.736;2023-09-19T12:10:22;7.97;;;2.00;;
59998;SDS011;45859;51.378;6.736;2023-09-19T12:12:48;6.07;;;2.25;;
59998;SDS011;45859;51.378;6.736;2023-09-19T12:15:22;5.07;;;2.00;;
59998;SDS011;45859;51.378;6.736;2023-09-19T12:17:53;5.20;;;1.92;;
59998;SDS011;45859;51.378;6.736;2023-09-19T12:20:19;6.00;;;2.10;;
59998;SDS011;45859;51.378;6.736;2023-09-19T12:22:47;6.13;;;2.22;;
59998;SDS011;45859;51.378;6.736;2023-09-19T12:25:15;7.80;;;2.10;;
59998;SDS011;45859;51.378;6.736;2023-09-19T12:27:43;7.97;;;2.03;;
59998;SDS011;45859;51.378;6.736;2023-09-19T12:30:12;6.57;;;2.05;;
59998;SDS011;45859;51.378;6.736;2023-09-19T12:32:43;6.28;;;2.60;;
59998;SDS011;45859;51.378;6.736;2023-09-19T12:35:09;4.60;;;1.80;;
59998;SDS011;45859;51.378;6.736;2023-09-19T12:37:43;6.82;;;1.80;;
59998;SDS011;45859;51.378;6.736;2023-09-19T12:40:13;6.80;;;1.63;;
59998;SDS011;45859;51.378;6.736;2023-09-19T12:42:43;7.75;;;2.15;;
59998;SDS011;45859;51.378;6.736;2023-09-19T12:45:09;6.97;;;1.60;;
59998;SDS011;45859;51.378;6.736;2023-09-19T12:47:38;7.32;;;1.88;;
59998;SDS011;45859;51.378;6.736;2023-09-19T12:52:37;7.35;;;1.60;;
59998;SDS011;45859;51.378;6.736;2023-09-19T12:55:04;6.50;;;1.83;;
59998;SDS011;45859;51.378;6.736;2023-09-19T12:57:32;4.72;;;1.70;;
59998;SDS011;45859;51.378;6.736;2023-09-19T13:00:00;5.97;;;1.40;;
59998;SDS011;45859;51.378;6.736;2023-09-19T13:02:26;8.45;;;1.98;;
59998;SDS011;45859;51.378;6.736;2023-09-19T13:04:53;6.82;;;2.20;;
59998;SDS011;45859;51.378;6.736;2023-09-19T13:07:40;6.10;;;1.35;;
59998;SDS011;45859;51.378;6.736;2023-09-19T13:10:08;8.43;;;1.65;;
59998;SDS011;45859;51.378;6.736;2023-09-19T13:12:35;7.63;;;1.75;;
59998;SDS011;45859;51.378;6.736;2023-09-19T13:15:11;7.35;;;1.58;;
59998;SDS011;45859;51.378;6.736;2023-09-19T13:17:55;7.38;;;1.70;;
59998;SDS011;45859;51.378;6.736;2023-09-19T13:20:25;5.05;;;1.35;;
59998;SDS011;45859;51.378;6.736;2023-09-19T13:22:55;8.15;;;1.75;;
59998;SDS011;45859;51.378;6.736;2023-09-19T13:25:25;10.18;;;1.30;;
59998;SDS011;45859;51.378;6.736;2023-09-19T13:27:54;4.15;;;1.45;;
59998;SDS011;45859;51.378;6.736;2023-09-19T13:30:25;7.35;;;1.50;;
59998;SDS011;45859;51.378;6.736;2023-09-19T13:35:17;5.55;;;1.30;;
59998;SDS011;45859;51.378;6.736;2023-09-19T13:37:44;3.10;;;1.05;;
59998;SDS011;45859;51.378;6.736;2023-09-19T13:40:15;6.75;;;1.30;;
59998;SDS011;45859;51.378;6.736;2023-09-19T13:42:42;5.63;;;1.83;;
59998;SDS011;45859;51.378;6.736;2023-09-19T13:45:08;2.60;;;0.95;;
59998;SDS011;45859;51.378;6.736;2023-09-19T13:47:40;2.97;;;1.00;;
59998;SDS011;45859;51.378;6.736;2023-09-19T13:50:07;5.88;;;1.08;;
59998;SDS011;45859;51.378;6.736;2023-09-19T13:52:33;7.40;;;1.20;;
59998;SDS011;45859;51.378;6.736;2023-09-19T13:54:59;4.65;;;1.02;;
59998;SDS011;45859;51.378;6.736;2023-09-19T13:57:25;9.32;;;1.50;;
59998;SDS011;45859;51.378;6.736;2023-09-19T13:59:52;5.53;;;1.35;;
59998;SDS011;45859;51.378;6.736;2023-09-19T14:02:21;6.05;;;1.23;;
59998;SDS011;45859;51.378;6.736;2023-09-19T14:04:53;3.80;;;1.23;;
59998;SDS011;45859;51.378;6.736;2023-09-19T14:07:18;3.70;;;1.13;;
59998;SDS011;45859;51.378;6.736;2023-09-19T14:09:45;5.45;;;1.58;;
59998;SDS011;45859;51.378;6.736;2023-09-19T14:12:12;5.07;;;1.52;;
59998;SDS011;45859;51.378;6.736;2023-09-19T14:14:38;3.88;;;1.10;;
59998;SDS011;45859;51.378;6.736;2023-09-19T14:17:04;8.02;;;1.40;;
59998;SDS011;45859;51.378;6.736;2023-09-19T14:19:32;4.90;;;1.25;;
59998;SDS011;45859;51.378;6.736;2023-09-19T14:21:58;6.60;;;1.20;;
59998;SDS011;45859;51.378;6.736;2023-09-19T14:24:25;4.68;;;1.40;;
59998;SDS011;45859;51.378;6.736;2023-09-19T14:26:51;3.95;;;1.30;;
59998;SDS011;45859;51.378;6.736;2023-09-19T14:29:17;3.90;;;1.30;;
59998;SDS011;45859;51.378;6.736;2023-09-19T14:31:44;5.82;;;1.80;;
59998;SDS011;45859;51.378;6.736;2023-09-19T14:34:10;6.13;;;1.90;;
59998;SDS011;45859;51.378;6.736;2023-09-19T14:36:36;8.07;;;2.35;;
59998;SDS011;45859;51.378;6.736;2023-09-19T14:39:03;10.32;;;1.60;;
59998;SDS011;45859;51.378;6.736;2023-09-19T14:41:29;3.80;;;1.23;;
59998;SDS011;45859;51.378;6.736;2023-09-19T14:43:56;3.55;;;0.90;;
59998;SDS011;45859;51.378;6.736;2023-09-19T14:46:22;6.55;;;1.20;;
59998;SDS011;45859;51.378;6.736;2023-09-19T14:48:50;3.45;;;1.02;;
59998;SDS011;45859;51.378;6.736;2023-09-19T14:51:16;2.95;;;1.08;;
59998;SDS011;45859;51.378;6.736;2023-09-19T14:53:44;3.83;;;0.80;;
59998;SDS011;45859;51.378;6.736;2023-09-19T14:56:11;3.42;;;1.33;;
59998;SDS011;45859;51.378;6.736;2023-09-19T14:58:38;5.07;;;1.20;;
59998;SDS011;45859;51.378;6.736;2023-09-19T15:01:05;3.85;;;0.93;;
59998;SDS011;45859;51.378;6.736;2023-09-19T15:03:35;2.67;;;1.10;;
59998;SDS011;45859;51.378;6.736;2023-09-19T15:06:01;4.53;;;1.02;;
59998;SDS011;45859;51.378;6.736;2023-09-19T15:08:27;5.85;;;1.00;;
59998;SDS011;45859;51.378;6.736;2023-09-19T15:10:53;4.53;;;0.95;;
59998;SDS011;45859;51.378;6.736;2023-09-19T15:13:20;3.53;;;0.95;;
59998;SDS011;45859;51.378;6.736;2023-09-19T15:15:46;3.40;;;1.00;;
59998;SDS011;45859;51.378;6.736;2023-09-19T15:18:13;2.83;;;0.80;;
59998;SDS011;45859;51.378;6.736;2023-09-19T15:20:45;2.53;;;0.68;;
59998;SDS011;45859;51.378;6.736;2023-09-19T15:23:12;3.63;;;0.90;;
59998;SDS011;45859;51.378;6.736;2023-09-19T15:25:39;3.75;;;0.80;;
59998;SDS011;45859;51.378;6.736;2023-09-19T15:28:06;1.38;;;0.50;;